createdAt,value
2023-03-01T00:01:30.557Z,38.17
2023-03-01T00:04:33.789Z,34.13
2023-03-01T00:07:35.516Z,29.35
2023-03-01T00:10:37.305Z,26.02
2023-03-01T00:13:39.599Z,23.38
2023-03-01T00:16:43.248Z,25.67
2023-03-01T00:19:45.106Z,23.85
2023-03-01T00:22:46.927Z,22.52
2023-03-01T00:25:49.226Z,21.90
2023-03-01T00:28:52.160Z,20.90
2023-03-01T00:31:54.004Z,22.77
2023-03-01T00:34:56.728Z,23.38
2023-03-01T00:37:58.953Z,27.13
2023-03-01T00:41:08.905Z,21.38
2023-03-01T00:44:11.462Z,23.95
2023-03-01T00:47:13.300Z,24.10
2023-03-01T00:50:15.450Z,21.13
2023-03-01T00:53:17.209Z,22.50
2023-03-01T00:56:20.942Z,23.00
2023-03-01T00:59:22.717Z,22.25
2023-03-01T01:02:24.878Z,23.63
2023-03-01T01:05:26.605Z,22.70
2023-03-01T01:08:28.675Z,21.38
2023-03-01T01:11:31.381Z,19.85
2023-03-01T01:14:34.173Z,20.48
2023-03-01T01:17:36.203Z,23.40
2023-03-01T01:20:38.513Z,19.83
2023-03-01T01:23:41.836Z,20.13
2023-03-01T01:26:44.462Z,24.38
2023-03-01T01:29:46.341Z,21.38
2023-03-01T01:32:48.115Z,18.55
2023-03-01T01:35:50.096Z,22.65
2023-03-01T01:38:52.050Z,21.00
2023-03-01T01:41:53.797Z,21.50
2023-03-01T01:45:40.709Z,21.63
2023-03-01T01:48:50.846Z,18.92
2023-03-01T01:52:01.732Z,19.10
2023-03-01T01:55:28.483Z,21.48
2023-03-01T01:58:31.493Z,18.27
2023-03-01T02:01:33.452Z,19.20
2023-03-01T02:04:35.461Z,19.90
2023-03-01T02:07:39.257Z,21.75
2023-03-01T02:10:42.310Z,17.23
2023-03-01T02:13:49.249Z,21.95
2023-03-01T02:16:51.381Z,18.05
2023-03-01T02:20:13.874Z,19.85
2023-03-01T02:23:15.845Z,19.55
2023-03-01T02:26:24.115Z,21.13
2023-03-01T02:32:28.083Z,20.05
2023-03-01T02:35:39.279Z,21.27
2023-03-01T02:38:42.638Z,16.90
2023-03-01T02:41:49.116Z,23.73
2023-03-01T02:44:51.519Z,21.33
2023-03-01T02:47:58.352Z,20.75
2023-03-01T02:51:19.909Z,19.30
2023-03-01T02:54:32.908Z,20.02
2023-03-01T02:57:39.002Z,26.17
2023-03-01T03:00:47.984Z,32.70
2023-03-01T03:03:51.166Z,34.45
2023-03-01T03:06:53.129Z,39.03
2023-03-01T03:09:54.819Z,32.88
2023-03-01T03:13:00.424Z,32.67
2023-03-01T03:16:04.718Z,29.42
2023-03-01T03:19:06.654Z,25.58
2023-03-01T03:22:10.041Z,19.58
2023-03-01T03:25:11.984Z,20.58
2023-03-01T03:28:13.814Z,26.17
2023-03-01T03:31:15.837Z,20.80
2023-03-01T03:34:19.146Z,20.30
2023-03-01T03:37:39.751Z,19.70
2023-03-01T03:40:46.559Z,20.25
2023-03-01T03:43:50.068Z,23.38
2023-03-01T03:46:51.929Z,21.55
2023-03-01T03:49:53.625Z,22.23
2023-03-01T03:52:55.485Z,23.75
2023-03-01T03:55:57.246Z,22.05
2023-03-01T03:58:59.076Z,23.85
2023-03-01T04:02:01.444Z,25.50
2023-03-01T04:05:03.387Z,27.90
2023-03-01T04:08:08.335Z,22.80
2023-03-01T04:11:28.447Z,22.30
2023-03-01T04:14:30.177Z,24.23
2023-03-01T04:17:31.896Z,23.70
2023-03-01T04:20:36.241Z,19.40
2023-03-01T04:23:38.654Z,21.50
2023-03-01T04:26:40.582Z,23.02
2023-03-01T04:29:42.359Z,22.67
2023-03-01T04:32:44.606Z,23.58
2023-03-01T04:35:46.823Z,21.38
2023-03-01T04:38:48.687Z,22.60
2023-03-01T04:41:50.489Z,24.33
2023-03-01T04:44:52.398Z,25.60
2023-03-01T04:47:54.714Z,28.55
2023-03-01T04:50:56.530Z,23.63
2023-03-01T04:53:58.223Z,22.90
2023-03-01T04:57:00.491Z,22.60
2023-03-01T05:00:02.638Z,25.92
2023-03-01T05:03:04.625Z,30.85
2023-03-01T05:06:06.535Z,26.55
2023-03-01T05:09:08.477Z,26.60
2023-03-01T05:12:10.792Z,29.88
2023-03-01T05:15:12.665Z,28.67
2023-03-01T05:18:14.703Z,29.15
2023-03-01T05:21:19.109Z,30.05
2023-03-01T05:24:20.826Z,28.45
2023-03-01T05:27:23.302Z,35.38
2023-03-01T05:30:25.044Z,34.65
2023-03-01T05:33:28.218Z,48.45
2023-03-01T05:36:30.452Z,85.28
2023-03-01T05:39:32.687Z,119.90
2023-03-01T05:42:34.469Z,126.53
2023-03-01T05:45:38.530Z,83.32
2023-03-01T05:48:40.536Z,53.05
2023-03-01T05:51:43.693Z,46.97
2023-03-01T05:54:45.655Z,44.80
2023-03-01T05:57:48.693Z,37.35
2023-03-01T06:00:52.918Z,34.20
2023-03-01T06:03:57.806Z,27.98
2023-03-01T06:06:59.624Z,30.35
2023-03-01T06:10:01.806Z,28.20
2023-03-01T06:13:03.807Z,33.70
2023-03-01T06:16:07.579Z,35.53
2023-03-01T06:19:09.462Z,34.90
2023-03-01T06:22:11.316Z,30.55
2023-03-01T06:25:15.344Z,36.85
2023-03-01T06:28:17.165Z,34.72
2023-03-01T06:31:19.111Z,26.50
2023-03-01T06:34:22.816Z,24.58
2023-03-01T06:37:24.581Z,25.17
2023-03-01T06:40:26.949Z,24.65
2023-03-01T06:43:28.971Z,46.17
2023-03-01T06:46:31.066Z,40.20
2023-03-01T06:49:32.948Z,35.30
2023-03-01T06:52:34.752Z,28.88
2023-03-01T06:55:36.547Z,34.00
2023-03-01T06:58:38.259Z,30.40
2023-03-01T07:01:40.487Z,27.80
2023-03-01T07:04:42.873Z,22.60
2023-03-01T07:07:45.370Z,23.50
2023-03-01T07:10:47.353Z,18.80
2023-03-01T07:13:49.082Z,21.42
2023-03-01T07:16:51.031Z,21.92
2023-03-01T07:19:52.860Z,20.63
2023-03-01T07:22:56.437Z,37.95
2023-03-01T07:25:58.370Z,37.20
2023-03-01T07:29:01.389Z,33.58
2023-03-01T07:32:04.321Z,19.25
2023-03-01T07:35:06.700Z,19.25
2023-03-01T07:38:08.488Z,19.88
2023-03-01T07:41:10.228Z,17.92
2023-03-01T07:44:12.056Z,16.27
2023-03-01T07:47:14.013Z,21.33
2023-03-01T07:50:16.476Z,17.25
2023-03-01T07:53:18.438Z,15.45
2023-03-01T07:56:20.648Z,17.58
2023-03-01T07:59:22.478Z,16.05
2023-03-01T08:02:24.268Z,15.98
2023-03-01T08:05:26.031Z,17.63
2023-03-01T08:08:27.992Z,16.58
2023-03-01T08:11:29.981Z,20.70
2023-03-01T08:14:33.009Z,18.52
2023-03-01T08:17:34.722Z,19.38
2023-03-01T08:20:36.584Z,15.57
2023-03-01T08:23:38.831Z,17.17
2023-03-01T08:26:40.855Z,17.70
2023-03-01T08:29:42.695Z,18.55
2023-03-01T08:32:44.593Z,18.17
2023-03-01T08:35:46.623Z,16.02
2023-03-01T08:38:48.551Z,17.58
2023-03-01T08:41:50.342Z,17.75
2023-03-01T08:44:52.229Z,16.17
2023-03-01T08:47:54.502Z,16.45
2023-03-01T08:50:56.951Z,17.08
2023-03-01T08:53:58.797Z,17.77
2023-03-01T08:57:03.490Z,16.55
2023-03-01T09:00:09.652Z,16.60
2023-03-01T09:03:11.490Z,14.77
2023-03-01T09:06:13.624Z,13.63
2023-03-01T09:09:17.846Z,17.23
2023-03-01T09:12:19.708Z,16.48
2023-03-01T09:15:21.453Z,14.65
2023-03-01T09:18:23.378Z,14.98
2023-03-01T09:21:39.076Z,17.60
2023-03-01T09:24:42.282Z,13.90
2023-03-01T09:27:43.965Z,14.18
2023-03-01T09:30:45.674Z,12.80
2023-03-01T09:33:49.514Z,14.98
2023-03-01T09:36:52.175Z,12.63
2023-03-01T09:39:54.169Z,12.40
2023-03-01T09:43:30.516Z,18.88
2023-03-01T09:46:43.694Z,12.63
2023-03-01T09:49:55.453Z,13.30
2023-03-01T09:53:07.642Z,14.90
2023-03-01T09:56:33.417Z,15.30
2023-03-01T10:00:01.969Z,17.33
2023-03-01T10:03:34.861Z,15.20
2023-03-01T10:06:36.668Z,13.38
2023-03-01T10:09:44.174Z,13.85
2023-03-01T10:12:48.297Z,28.25
2023-03-01T10:15:56.233Z,12.60
2023-03-01T10:22:16.167Z,13.15
2023-03-01T10:25:43.613Z,13.23
2023-03-01T10:28:53.993Z,19.15
2023-03-01T10:31:56.105Z,13.13
2023-03-01T10:34:58.514Z,12.68
2023-03-01T10:38:06.806Z,12.73
2023-03-01T10:44:46.652Z,10.75
2023-03-01T10:48:09.739Z,11.98
2023-03-01T10:51:18.920Z,14.57
2023-03-01T10:54:32.574Z,11.85
2023-03-01T10:57:39.934Z,15.80
2023-03-01T11:00:53.954Z,12.50
2023-03-01T11:04:04.573Z,13.35
2023-03-01T11:07:06.421Z,11.68
2023-03-01T11:10:18.963Z,11.57
2023-03-01T11:13:21.335Z,14.70
2023-03-01T11:16:28.177Z,9.38
2023-03-01T11:19:33.896Z,9.80
2023-03-01T11:22:36.491Z,9.77
2023-03-01T11:25:42.909Z,11.95
2023-03-01T11:28:51.355Z,13.25
2023-03-01T11:31:58.110Z,15.73
2023-03-01T11:35:23.824Z,13.75
2023-03-01T11:38:27.701Z,9.10
2023-03-01T11:41:37.627Z,9.43
2023-03-01T11:44:43.396Z,9.50
2023-03-01T11:48:13.071Z,13.13
2023-03-01T11:51:27.016Z,13.25
2023-03-01T11:54:43.728Z,10.85
2023-03-01T11:57:57.428Z,9.95
2023-03-01T12:01:14.204Z,12.35
2023-03-01T12:04:57.962Z,11.75
2023-03-01T12:08:21.512Z,8.90
2023-03-01T12:11:29.676Z,12.13
2023-03-01T12:14:55.602Z,10.57
2023-03-01T12:17:59.484Z,9.80
2023-03-01T12:21:13.177Z,11.80
2023-03-01T12:24:42.889Z,10.02
2023-03-01T12:28:22.906Z,12.15
2023-03-01T12:31:42.748Z,9.65
2023-03-01T12:35:03.085Z,9.73
2023-03-01T12:38:38.754Z,8.45
2023-03-01T12:41:47.158Z,9.57
2023-03-01T12:45:07.192Z,8.25
2023-03-01T12:48:14.928Z,7.35
2023-03-01T12:51:21.889Z,8.48
2023-03-01T12:54:32.460Z,9.52
2023-03-01T12:57:43.281Z,9.40
2023-03-01T13:01:05.379Z,10.18
2023-03-01T13:04:12.290Z,8.27
2023-03-01T13:07:50.839Z,9.73
2023-03-01T13:11:04.445Z,8.98
2023-03-01T13:14:21.541Z,7.80
2023-03-01T13:17:45.791Z,12.43
2023-03-01T13:20:49.999Z,6.00
2023-03-01T13:23:53.006Z,9.23
2023-03-01T13:27:07.244Z,8.18
2023-03-01T13:30:38.030Z,7.13
2023-03-01T13:33:47.850Z,6.63
2023-03-01T13:36:50.668Z,9.73
2023-03-01T13:39:53.537Z,7.63
2023-03-01T13:43:05.963Z,7.47
2023-03-01T13:46:14.996Z,6.47
2023-03-01T13:49:24.022Z,7.95
2023-03-01T13:52:41.566Z,7.25
2023-03-01T13:55:46.735Z,10.32
2023-03-01T13:59:14.858Z,15.60
2023-03-01T14:02:17.538Z,9.82
2023-03-01T14:05:19.353Z,16.23
2023-03-01T14:08:24.851Z,6.60
2023-03-01T14:11:38.719Z,8.32
2023-03-01T14:14:52.393Z,8.15
2023-03-01T14:18:05.412Z,10.40
2023-03-01T14:21:10.142Z,7.50
2023-03-01T14:24:35.356Z,9.93
2023-03-01T14:27:42.930Z,7.28
2023-03-01T14:30:50.434Z,6.78
2023-03-01T14:33:56.694Z,9.63
2023-03-01T14:37:11.554Z,7.57
2023-03-01T14:40:35.549Z,5.97
2023-03-01T14:43:41.320Z,8.60
2023-03-01T14:46:46.657Z,8.23
2023-03-01T14:49:53.585Z,5.57
2023-03-01T14:52:59.170Z,10.35
2023-03-01T14:56:05.344Z,7.30
2023-03-01T14:59:10.538Z,12.10
2023-03-01T15:02:23.393Z,12.75
2023-03-01T15:05:34.262Z,14.68
2023-03-01T15:08:38.176Z,11.93
2023-03-01T15:11:44.655Z,11.68
2023-03-01T15:15:02.513Z,30.15
2023-03-01T15:18:15.237Z,18.42
2023-03-01T15:21:24.376Z,21.13
2023-03-01T15:24:28.713Z,17.05
2023-03-01T15:27:30.618Z,13.63
2023-03-01T15:30:38.964Z,8.52
2023-03-01T15:33:48.288Z,13.43
2023-03-01T15:36:51.574Z,10.75
2023-03-01T15:39:57.962Z,16.42
2023-03-01T15:43:01.998Z,11.82
2023-03-01T15:46:04.034Z,12.75
2023-03-01T15:49:27.967Z,12.95
2023-03-01T15:52:40.264Z,15.00
2023-03-01T15:55:42.708Z,13.30
2023-03-01T15:58:44.653Z,8.95
2023-03-01T16:01:46.957Z,11.02
2023-03-01T16:04:49.900Z,14.13
2023-03-01T16:07:53.092Z,8.38
2023-03-01T16:10:55.712Z,12.10
2023-03-01T16:13:57.573Z,16.50
2023-03-01T16:16:59.537Z,19.55
2023-03-01T16:20:01.297Z,32.50
2023-03-01T16:23:05.930Z,21.60
2023-03-01T16:26:07.751Z,27.67
2023-03-01T16:29:09.812Z,18.48
2023-03-01T16:32:11.843Z,19.08
2023-03-01T16:35:16.202Z,29.88
2023-03-01T16:38:18.059Z,20.17
2023-03-01T16:41:22.306Z,19.17
2023-03-01T16:44:24.115Z,20.30
2023-03-01T16:47:25.829Z,24.60
2023-03-01T16:50:27.751Z,24.38
2023-03-01T16:53:29.835Z,20.73
2023-03-01T16:56:34.154Z,29.15
2023-03-01T16:59:36.256Z,40.33
2023-03-01T17:02:38.243Z,35.08
2023-03-01T17:05:41.485Z,56.10
2023-03-01T17:08:43.402Z,54.20
2023-03-01T17:11:45.180Z,40.60
2023-03-01T17:14:46.964Z,51.55
2023-03-01T17:17:51.903Z,53.15
2023-03-01T17:20:53.717Z,38.38
2023-03-01T17:23:59.137Z,50.28
2023-03-01T17:27:01.202Z,35.47
2023-03-01T17:30:04.067Z,37.13
2023-03-01T17:33:05.851Z,30.60
2023-03-01T17:36:07.806Z,22.70
2023-03-01T17:39:11.038Z,16.90
2023-03-01T17:42:12.955Z,35.80
2023-03-01T17:45:14.847Z,47.47
2023-03-01T17:48:17.307Z,34.85
2023-03-01T17:51:19.301Z,49.13
2023-03-01T17:54:21.053Z,35.35
2023-03-01T17:57:22.744Z,35.88
2023-03-01T18:00:24.993Z,65.07
2023-03-01T18:03:26.860Z,40.85
2023-03-01T18:06:29.691Z,40.72
2023-03-01T18:09:31.683Z,20.80
2023-03-01T18:12:33.535Z,29.73
2023-03-01T18:15:35.325Z,21.55
2023-03-01T18:18:37.425Z,32.22
2023-03-01T18:21:39.455Z,26.00
2023-03-01T18:24:41.900Z,16.50
2023-03-01T18:27:43.604Z,23.67
2023-03-01T18:30:45.822Z,27.05
2023-03-01T18:33:49.078Z,16.73
2023-03-01T18:37:08.739Z,23.13
2023-03-01T18:40:12.957Z,29.25
2023-03-01T18:43:14.930Z,33.13
2023-03-01T18:46:17.102Z,30.90
2023-03-01T18:49:19.324Z,33.30
2023-03-01T18:52:21.029Z,16.85
2023-03-01T18:55:22.977Z,12.23
2023-03-01T18:58:24.806Z,10.30
2023-03-01T19:01:28.569Z,9.25
2023-03-01T19:04:30.503Z,11.45
2023-03-01T19:07:32.788Z,16.55
2023-03-01T19:10:34.688Z,15.68
2023-03-01T19:13:38.537Z,16.67
2023-03-01T19:16:40.425Z,16.55
2023-03-01T19:19:42.197Z,16.70
2023-03-01T19:22:44.013Z,11.77
2023-03-01T19:25:45.800Z,13.68
2023-03-01T19:28:51.467Z,12.10
2023-03-01T19:31:53.335Z,9.45
2023-03-01T19:34:55.136Z,10.18
2023-03-01T19:37:56.857Z,12.00
2023-03-01T19:40:58.615Z,11.30
2023-03-01T19:44:04.695Z,11.00
2023-03-01T19:47:06.577Z,10.63
2023-03-01T19:50:09.267Z,10.00
2023-03-01T19:53:12.386Z,11.80
2023-03-01T19:56:14.246Z,10.85
2023-03-01T19:59:16.689Z,10.35
2023-03-01T20:02:18.738Z,13.32
2023-03-01T20:05:20.795Z,12.32
2023-03-01T20:08:23.570Z,8.90
2023-03-01T20:11:25.588Z,11.23
2023-03-01T20:14:27.469Z,25.13
2023-03-01T20:17:29.579Z,17.55
2023-03-01T20:20:31.420Z,12.27
2023-03-01T20:23:33.204Z,18.08
2023-03-01T20:26:35.319Z,36.30
2023-03-01T20:29:37.056Z,19.23
2023-03-01T20:32:38.986Z,19.60
2023-03-01T20:35:42.358Z,19.65
2023-03-01T20:38:44.039Z,15.85
2023-03-01T20:41:45.992Z,22.73
2023-03-01T20:44:47.882Z,33.15
2023-03-01T20:47:49.955Z,43.42
2023-03-01T20:50:51.853Z,34.97
2023-03-01T20:53:53.818Z,26.48
2023-03-01T20:56:55.816Z,24.33
2023-03-01T20:59:57.571Z,20.23
2023-03-01T21:02:59.371Z,21.80
2023-03-01T21:06:03.028Z,19.50
2023-03-01T21:09:05.583Z,18.15
2023-03-01T21:12:23.764Z,24.58
2023-03-01T21:15:56.488Z,13.50
2023-03-01T21:19:12.062Z,22.63
2023-03-01T21:22:22.872Z,12.73
2023-03-01T21:25:35.110Z,18.60
2023-03-01T21:28:38.636Z,30.75
2023-03-01T21:31:40.642Z,28.02
2023-03-01T21:34:42.932Z,30.17
2023-03-01T21:37:44.944Z,21.88
2023-03-01T21:40:47.004Z,25.25
2023-03-01T21:43:50.485Z,21.05
2023-03-01T21:46:53.392Z,24.63
2023-03-01T21:49:55.186Z,24.75
2023-03-01T21:52:57.054Z,28.35
2023-03-01T21:55:59.551Z,30.98
2023-03-01T21:59:01.883Z,31.33
2023-03-01T22:02:06.669Z,27.88
2023-03-01T22:05:08.934Z,23.63
2023-03-01T22:08:10.785Z,17.33
2023-03-01T22:11:12.736Z,25.42
2023-03-01T22:14:17.920Z,31.08
2023-03-01T22:17:19.738Z,47.45
2023-03-01T22:20:22.309Z,37.25
2023-03-01T22:23:24.323Z,41.97
2023-03-01T22:26:30.968Z,37.05
2023-03-01T22:29:32.844Z,29.48
2023-03-01T22:32:34.986Z,29.52
2023-03-01T22:35:36.826Z,27.40
2023-03-01T22:38:39.474Z,36.95
2023-03-01T22:41:45.554Z,28.25
2023-03-01T22:44:47.437Z,31.83
2023-03-01T22:47:49.126Z,28.23
2023-03-01T22:50:51.854Z,33.80
2023-03-01T22:53:55.091Z,33.15
2023-03-01T22:56:56.962Z,28.92
2023-03-01T22:59:58.842Z,30.25
2023-03-01T23:03:01.106Z,31.42
2023-03-01T23:06:02.936Z,29.17
2023-03-01T23:09:05.960Z,25.65
2023-03-01T23:12:09.373Z,22.58
2023-03-01T23:15:12.213Z,21.15
2023-03-01T23:18:14.030Z,23.77
2023-03-01T23:21:19.031Z,21.45
2023-03-01T23:24:23.890Z,22.02
2023-03-01T23:27:25.744Z,23.77
2023-03-01T23:30:27.522Z,27.67
2023-03-01T23:33:33.371Z,27.33
2023-03-01T23:36:35.587Z,30.00
2023-03-01T23:39:38.162Z,35.15
2023-03-01T23:42:40.824Z,25.27
2023-03-01T23:45:43.408Z,31.70
2023-03-01T23:48:45.905Z,31.23
2023-03-01T23:51:47.969Z,35.17
2023-03-01T23:54:49.676Z,38.28
2023-03-01T23:57:51.617Z,45.83
